Time;durP1;ratioP1;P1;durP2;ratioP2;P2;SDS_P1;SDS_P2;PMS_P1;PMS_P2;Temp;Humidity;BMP_temperature;BMP_pressure;BME280_temperature;BME280_humidity;BME280_pressure;Samples;Min_cycle;Max_cycle;Signal;HPM_P1;HPM_P2
2023/04/17 00:01:40;;;;;;;22.23;16.58;;;;;;;;;;5283962;28;20096;-77
2023/04/17 00:04:11;;;;;;;19.42;15.65;;;;;;;;;;5284415;28;20096;-77
2023/04/17 00:06:43;;;;;;;23.45;17.60;;;;;;;;;;5283180;28;20041;-77
2023/04/17 00:09:14;;;;;;;21.80;16.27;;;;;;;;;;5284329;28;20047;-77
2023/04/17 00:11:45;;;;;;;21.50;15.48;;;;;;;;;;5283980;28;20460;-77
2023/04/17 00:14:17;;;;;;;19.60;16.50;;;;;;;;;;5284005;28;20017;-77
2023/04/17 00:16:48;;;;;;;19.85;16.65;;;;;;;;;;5284039;28;20589;-78
2023/04/17 00:19:19;;;;;;;20.25;17.05;;;;;;;;;;5284363;28;20027;-78
2023/04/17 00:21:50;;;;;;;22.00;17.70;;;;;;;;;;5283272;28;20051;-77
2023/04/17 00:24:21;;;;;;;23.50;17.98;;;;;;;;;;5283891;28;20054;-78
2023/04/17 00:26:53;;;;;;;21.13;16.65;;;;;;;;;;5282819;28;20047;-78
2023/04/17 00:29:24;;;;;;;22.05;16.90;;;;;;;;;;5283899;28;20458;-78
2023/04/17 00:31:55;;;;;;;23.05;19.10;;;;;;;;;;5283766;28;20108;-78
2023/04/17 00:34:26;;;;;;;21.60;17.88;;;;;;;;;;5283285;28;20035;-77
2023/04/17 00:36:58;;;;;;;19.75;16.80;;;;;;;;;;5283479;28;20017;-77
2023/04/17 00:39:29;;;;;;;19.10;15.55;;;;;;;;;;5283758;28;20074;-78
2023/04/17 00:42:01;;;;;;;22.58;17.77;;;;;;;;;;5282706;28;20035;-77
2023/04/17 00:44:32;;;;;;;21.88;16.75;;;;;;;;;;5283671;28;20567;-77
2023/04/17 00:47:03;;;;;;;19.75;15.15;;;;;;;;;;5283660;28;20111;-77
2023/04/17 00:49:35;;;;;;;19.88;16.38;;;;;;;;;;5282688;28;20032;-77
2023/04/17 00:52:06;;;;;;;18.50;14.82;;;;;;;;;;5283454;28;20013;-77
2023/04/17 00:54:37;;;;;;;20.40;16.23;;;;;;;;;;5283499;28;20078;-78
2023/04/17 00:57:08;;;;;;;19.42;15.43;;;;;;;;;;5283359;28;20017;-77
2023/04/17 00:59:40;;;;;;;18.05;15.32;;;;;;;;;;5282973;28;20126;-79
2023/04/17 01:02:11;;;;;;;17.40;14.57;;;;;;;;;;5282473;28;20052;-78
2023/04/17 01:04:43;;;;;;;20.08;16.02;;;;;;;;;;5282756;28;20454;-78
2023/04/17 01:07:14;;;;;;;17.02;15.15;;;;;;;;;;5283391;28;20494;-78
2023/04/17 01:09:45;;;;;;;17.90;15.30;;;;;;;;;;5282021;28;20120;-78
2023/04/17 01:12:17;;;;;;;18.35;15.25;;;;;;;;;;5283376;28;20472;-78
2023/04/17 01:14:49;;;;;;;17.75;15.23;;;;;;;;;;5282921;28;20091;-78
2023/04/17 01:17:21;;;;;;;18.13;14.82;;;;;;;;;;5282571;28;20467;-78
2023/04/17 01:19:53;;;;;;;16.65;14.82;;;;;;;;;;5282812;28;20025;-78
2023/04/17 01:22:24;;;;;;;21.05;17.75;;;;;;;;;;5283283;28;20077;-78
2023/04/17 01:24:55;;;;;;;16.02;14.15;;;;;;;;;;5281731;28;20056;-78
2023/04/17 01:27:26;;;;;;;18.92;16.02;;;;;;;;;;5283065;28;20333;-78
2023/04/17 01:29:57;;;;;;;20.80;15.93;;;;;;;;;;5281553;28;20402;-79
2023/04/17 01:32:29;;;;;;;18.13;15.90;;;;;;;;;;5283237;28;20013;-78
2023/04/17 01:35:00;;;;;;;18.95;15.43;;;;;;;;;;5282135;28;20287;-78
2023/04/17 01:37:31;;;;;;;19.42;16.23;;;;;;;;;;5281853;28;20037;-78
2023/04/17 01:40:06;;;;;;;18.73;15.30;;;;;;;;;;5282309;28;20020;-78
2023/04/17 01:42:37;;;;;;;22.65;16.88;;;;;;;;;;5282523;28;20042;-78
2023/04/17 01:45:08;;;;;;;16.83;14.32;;;;;;;;;;5282043;28;20042;-78
2023/04/17 01:47:39;;;;;;;17.88;14.93;;;;;;;;;;5282133;28;20024;-79
2023/04/17 01:50:11;;;;;;;19.17;15.52;;;;;;;;;;5282720;28;20517;-78
2023/04/17 01:52:42;;;;;;;19.77;16.13;;;;;;;;;;5281244;28;20016;-78
2023/04/17 01:55:13;;;;;;;27.90;17.13;;;;;;;;;;5282924;28;20024;-78
2023/04/17 01:57:44;;;;;;;16.95;14.63;;;;;;;;;;5282490;28;20036;-79
2023/04/17 02:00:16;;;;;;;19.13;15.55;;;;;;;;;;5281440;28;20017;-78
2023/04/17 02:02:47;;;;;;;20.30;16.50;;;;;;;;;;5281840;28;20020;-79
2023/04/17 02:05:18;;;;;;;20.17;15.70;;;;;;;;;;5281285;28;20064;-77
2023/04/17 02:07:50;;;;;;;19.80;15.55;;;;;;;;;;5281776;28;20032;-78
2023/04/17 02:10:21;;;;;;;16.88;14.40;;;;;;;;;;5282480;28;20025;-78
2023/04/17 02:12:52;;;;;;;17.17;14.68;;;;;;;;;;5280590;28;20031;-78
2023/04/17 02:15:23;;;;;;;20.15;15.43;;;;;;;;;;5281999;28;20016;-77
2023/04/17 02:17:55;;;;;;;16.38;12.88;;;;;;;;;;5281260;28;20102;-78
2023/04/17 02:20:26;;;;;;;19.38;15.52;;;;;;;;;;5281256;28;20020;-78
2023/04/17 02:22:58;;;;;;;17.00;13.18;;;;;;;;;;5281442;28;20016;-78
2023/04/17 02:25:29;;;;;;;18.05;13.80;;;;;;;;;;5281467;28;20055;-78
2023/04/17 02:28:01;;;;;;;19.83;14.63;;;;;;;;;;5280927;28;20107;-78
2023/04/17 02:30:32;;;;;;;18.83;15.48;;;;;;;;;;5281599;28;20024;-78
2023/04/17 02:33:03;;;;;;;15.90;13.98;;;;;;;;;;5281673;28;20031;-78
2023/04/17 02:35:34;;;;;;;18.27;14.95;;;;;;;;;;5280974;28;20059;-77
2023/04/17 02:38:05;;;;;;;16.73;14.80;;;;;;;;;;5281857;28;20391;-78
2023/04/17 02:40:37;;;;;;;17.17;14.48;;;;;;;;;;5280648;28;20028;-78
2023/04/17 02:43:08;;;;;;;16.48;14.48;;;;;;;;;;5281761;28;20116;-78
2023/04/17 02:45:39;;;;;;;18.73;14.82;;;;;;;;;;5281205;28;20027;-78
2023/04/17 02:48:10;;;;;;;16.88;13.90;;;;;;;;;;5281070;28;20040;-78
2023/04/17 02:50:41;;;;;;;18.90;15.55;;;;;;;;;;5281078;28;20013;-78
2023/04/17 02:53:13;;;;;;;18.27;15.35;;;;;;;;;;5281647;28;20024;-77
2023/04/17 02:55:44;;;;;;;18.02;16.05;;;;;;;;;;5280327;28;20027;-77
2023/04/17 02:58:15;;;;;;;17.88;15.15;;;;;;;;;;5281760;28;20021;-77
2023/04/17 03:00:46;;;;;;;17.17;14.63;;;;;;;;;;5281060;28;20049;-77
2023/04/17 03:03:18;;;;;;;19.50;15.95;;;;;;;;;;5280780;28;20070;-77
2023/04/17 03:05:49;;;;;;;18.50;15.43;;;;;;;;;;5281178;28;20040;-78
2023/04/17 03:08:20;;;;;;;19.38;16.13;;;;;;;;;;5280839;28;20060;-79
2023/04/17 03:10:52;;;;;;;21.40;17.30;;;;;;;;;;5280985;28;20055;-78
2023/04/17 03:13:23;;;;;;;24.55;18.60;;;;;;;;;;5284479;28;20386;-78
2023/04/17 03:15:54;;;;;;;22.88;17.85;;;;;;;;;;5284389;28;20031;-78
2023/04/17 03:18:25;;;;;;;21.40;17.85;;;;;;;;;;5285739;28;20025;-78
2023/04/17 03:20:57;;;;;;;25.17;18.35;;;;;;;;;;5284933;28;20031;-78
2023/04/17 03:23:28;;;;;;;23.15;18.23;;;;;;;;;;5284682;28;20399;-78
2023/04/17 03:26:00;;;;;;;27.60;20.65;;;;;;;;;;5284744;28;20025;-78
2023/04/17 03:28:32;;;;;;;25.85;19.23;;;;;;;;;;5284887;28;20037;-79
2023/04/17 03:31:03;;;;;;;26.35;19.13;;;;;;;;;;5284500;28;20089;-78
2023/04/17 03:33:36;;;;;;;26.33;19.25;;;;;;;;;;5284917;28;20040;-78
2023/04/17 03:36:07;;;;;;;23.67;17.80;;;;;;;;;;5285396;28;20028;-78
2023/04/17 03:38:38;;;;;;;24.92;18.00;;;;;;;;;;5283920;28;20025;-78
2023/04/17 03:41:10;;;;;;;25.58;19.13;;;;;;;;;;5285272;28;20024;-78
2023/04/17 03:43:41;;;;;;;24.45;19.20;;;;;;;;;;5284124;28;20098;-79
2023/04/17 03:46:12;;;;;;;23.13;18.90;;;;;;;;;;5285185;28;20024;-78
2023/04/17 03:48:43;;;;;;;27.42;21.50;;;;;;;;;;5284289;28;20156;-78
2023/04/17 03:51:15;;;;;;;28.33;20.45;;;;;;;;;;5284226;28;20020;-78
2023/04/17 03:53:46;;;;;;;25.58;19.27;;;;;;;;;;5284340;28;20274;-78
2023/04/17 03:56:17;;;;;;;24.27;18.15;;;;;;;;;;5285093;28;20021;-78
2023/04/17 03:58:49;;;;;;;23.42;17.80;;;;;;;;;;5283544;28;20043;-78
2023/04/17 04:01:21;;;;;;;23.85;19.08;;;;;;;;;;5284884;28;20086;-78
2023/04/17 04:03:52;;;;;;;22.10;17.95;;;;;;;;;;5284108;28;20074;-79
2023/04/17 04:06:24;;;;;;;20.08;15.73;;;;;;;;;;5284356;28;20012;-78
2023/04/17 04:08:55;;;;;;;22.25;18.73;;;;;;;;;;5284276;28;20035;-78
2023/04/17 04:11:27;;;;;;;23.30;18.50;;;;;;;;;;5284732;28;20313;-76
2023/04/17 04:13:58;;;;;;;24.77;19.20;;;;;;;;;;5283391;28;20020;-76
2023/04/17 04:16:29;;;;;;;22.30;18.05;;;;;;;;;;5284105;28;20028;-79
2023/04/17 04:19:00;;;;;;;23.60;18.60;;;;;;;;;;5283765;28;20255;-79
2023/04/17 04:21:31;;;;;;;25.40;17.90;;;;;;;;;;5284091;28;20383;-78
2023/04/17 04:24:03;;;;;;;20.90;17.67;;;;;;;;;;5283534;28;20056;-77
2023/04/17 04:26:34;;;;;;;23.65;18.42;;;;;;;;;;5280685;28;20029;-77
2023/04/17 04:29:05;;;;;;;21.02;17.75;;;;;;;;;;5282933;28;20364;-77
2023/04/17 04:31:36;;;;;;;22.10;17.20;;;;;;;;;;5283837;28;20016;-77
2023/04/17 04:34:08;;;;;;;22.10;18.10;;;;;;;;;;5283135;28;20560;-77
2023/04/17 04:36:49;;;;;;;25.50;19.92;;;;;;;;;;5283385;28;20108;-78
2023/04/17 04:39:20;;;;;;;22.10;18.38;;;;;;;;;;5283531;28;20287;-77
2023/04/17 04:41:51;;;;;;;21.17;16.80;;;;;;;;;;5281477;28;20016;-77
2023/04/17 04:44:22;;;;;;;19.73;16.65;;;;;;;;;;5283826;28;20016;-78
2023/04/17 04:46:54;;;;;;;24.02;19.50;;;;;;;;;;5282269;28;20036;-78
2023/04/17 04:49:25;;;;;;;22.10;17.42;;;;;;;;;;5283769;28;20112;-78
2023/04/17 04:51:56;;;;;;;25.25;19.63;;;;;;;;;;5282706;28;20096;-78
2023/04/17 04:54:27;;;;;;;25.60;20.00;;;;;;;;;;5283033;28;20360;-78
2023/04/17 04:56:59;;;;;;;24.20;19.10;;;;;;;;;;5282738;28;20021;-78
2023/04/17 04:59:30;;;;;;;26.85;20.13;;;;;;;;;;5283282;28;20111;-78
2023/04/17 05:02:01;;;;;;;28.88;21.02;;;;;;;;;;5282455;28;20418;-78
2023/04/17 05:04:32;;;;;;;24.42;18.20;;;;;;;;;;5283346;28;20021;-79
2023/04/17 05:07:04;;;;;;;23.77;19.25;;;;;;;;;;5282987;28;20051;-77
2023/04/17 05:09:35;;;;;;;24.75;19.63;;;;;;;;;;5282198;28;20033;-79
2023/04/17 05:12:06;;;;;;;26.60;20.58;;;;;;;;;;5282872;28;20024;-78
2023/04/17 05:14:38;;;;;;;26.63;19.65;;;;;;;;;;5282521;28;20020;-79
2023/04/17 05:17:09;;;;;;;24.27;18.05;;;;;;;;;;5282425;28;20391;-78
2023/04/17 05:19:40;;;;;;;26.88;21.13;;;;;;;;;;5282477;28;20086;-78
2023/04/17 05:22:11;;;;;;;27.10;20.55;;;;;;;;;;5282353;28;20024;-78
2023/04/17 05:24:42;;;;;;;28.00;20.88;;;;;;;;;;5282144;28;20127;-78
2023/04/17 05:27:14;;;;;;;27.90;21.10;;;;;;;;;;5282653;28;20052;-78
2023/04/17 05:29:45;;;;;;;25.13;20.45;;;;;;;;;;5281588;28;20386;-78
2023/04/17 05:32:16;;;;;;;27.63;21.33;;;;;;;;;;5282935;28;20024;-78
2023/04/17 05:34:47;;;;;;;23.88;19.02;;;;;;;;;;5281233;28;20017;-78
2023/04/17 05:37:18;;;;;;;23.88;18.92;;;;;;;;;;5282152;28;20450;-78
2023/04/17 05:39:50;;;;;;;26.63;20.27;;;;;;;;;;5282071;28;20054;-77
2023/04/17 05:42:21;;;;;;;24.52;19.40;;;;;;;;;;5282717;28;20062;-77
2023/04/17 05:44:52;;;;;;;27.92;21.27;;;;;;;;;;5281343;28;20024;-77
2023/04/17 05:47:23;;;;;;;28.88;21.05;;;;;;;;;;5282598;28;20047;-78
2023/04/17 05:49:57;;;;;;;25.98;19.88;;;;;;;;;;5282279;28;20032;-78
2023/04/17 05:52:28;;;;;;;26.77;20.73;;;;;;;;;;5281852;28;20025;-78
2023/04/17 05:54:59;;;;;;;27.40;20.65;;;;;;;;;;5281963;28;20447;-77
2023/04/17 05:57:30;;;;;;;28.25;22.25;;;;;;;;;;5281409;28;20020;-78
2023/04/17 06:00:07;;;;;;;26.27;20.48;;;;;;;;;;5282146;28;20028;-78
2023/04/17 06:02:41;;;;;;;31.20;22.90;;;;;;;;;;5281604;28;20383;-78
2023/04/17 06:05:13;;;;;;;25.42;21.10;;;;;;;;;;5281535;28;20116;-78
2023/04/17 06:07:44;;;;;;;29.10;23.25;;;;;;;;;;5281339;28;20497;-78
2023/04/17 06:10:15;;;;;;;28.23;21.63;;;;;;;;;;5281973;28;20088;-77
2023/04/17 06:12:47;;;;;;;29.13;22.95;;;;;;;;;;5280625;28;20016;-77
2023/04/17 06:15:18;;;;;;;27.58;22.25;;;;;;;;;;5281908;28;20031;-76
2023/04/17 06:17:49;;;;;;;30.65;22.45;;;;;;;;;;5281643;28;20032;-77
2023/04/17 06:20:20;;;;;;;30.42;22.40;;;;;;;;;;5281330;28;20044;-77
2023/04/17 06:22:51;;;;;;;31.58;23.27;;;;;;;;;;5281308;28;20025;-79
2023/04/17 06:25:23;;;;;;;29.95;23.80;;;;;;;;;;5280864;28;20541;-78
2023/04/17 06:27:54;;;;;;;28.60;23.23;;;;;;;;;;5281619;28;20037;-77
2023/04/17 06:30:25;;;;;;;29.40;23.13;;;;;;;;;;5282162;28;20028;-77
2023/04/17 06:32:56;;;;;;;30.48;23.60;;;;;;;;;;5280684;28;20298;-78
2023/04/17 06:35:27;;;;;;;31.75;23.83;;;;;;;;;;5281993;28;20027;-78
2023/04/17 06:37:59;;;;;;;30.72;23.20;;;;;;;;;;5281316;28;20107;-79
2023/04/17 06:40:30;;;;;;;32.88;24.25;;;;;;;;;;5281159;28;20035;-78
2023/04/17 06:43:01;;;;;;;29.63;23.33;;;;;;;;;;5281550;28;20024;-77
2023/04/17 06:45:33;;;;;;;30.20;23.50;;;;;;;;;;5281738;28;20017;-76
2023/04/17 06:48:04;;;;;;;32.47;23.85;;;;;;;;;;5280712;28;20049;-76
2023/04/17 06:50:35;;;;;;;31.20;23.77;;;;;;;;;;5281218;28;20029;-76
2023/04/17 06:53:07;;;;;;;31.70;25.17;;;;;;;;;;5281506;28;20402;-76
2023/04/17 06:55:38;;;;;;;31.33;23.88;;;;;;;;;;5280603;28;20120;-77
2023/04/17 06:58:09;;;;;;;33.45;24.13;;;;;;;;;;5281297;28;20020;-75
2023/04/17 07:00:40;;;;;;;35.35;23.73;;;;;;;;;;5280241;28;20378;-74
2023/04/17 07:03:13;;;;;;;32.03;23.52;;;;;;;;;;5281514;28;20108;-74
2023/04/17 07:05:44;;;;;;;29.27;22.67;;;;;;;;;;5281101;28;20043;-75
2023/04/17 07:08:17;;;;;;;30.15;22.55;;;;;;;;;;5280583;28;20048;-75
2023/04/17 07:10:48;;;;;;;33.08;24.73;;;;;;;;;;5280755;28;20518;-75
2023/04/17 07:13:20;;;;;;;33.33;24.20;;;;;;;;;;5281073;28;20108;-74
2023/04/17 07:15:54;;;;;;;33.03;23.60;;;;;;;;;;5279985;28;20024;-74
2023/04/17 07:18:25;;;;;;;29.63;22.65;;;;;;;;;;5281348;28;20465;-73
2023/04/17 07:20:56;;;;;;;32.63;24.75;;;;;;;;;;5280673;28;20048;-73
2023/04/17 07:23:28;;;;;;;34.35;24.63;;;;;;;;;;5280406;28;20387;-73
2023/04/17 07:25:59;;;;;;;31.13;23.17;;;;;;;;;;5280034;28;20020;-74
2023/04/17 07:28:30;;;;;;;30.90;23.75;;;;;;;;;;5281127;28;20123;-74
2023/04/17 07:31:03;;;;;;;34.75;24.20;;;;;;;;;;5280511;28;20347;-74
2023/04/17 07:33:35;;;;;;;31.75;23.90;;;;;;;;;;5281171;28;20051;-75
2023/04/17 07:36:08;;;;;;;27.83;21.85;;;;;;;;;;5279973;28;20036;-74
2023/04/17 07:38:41;;;;;;;32.20;23.67;;;;;;;;;;5280480;28;20119;-74
2023/04/17 07:41:12;;;;;;;27.60;22.50;;;;;;;;;;5281069;28;20015;-74
2023/04/17 07:43:43;;;;;;;28.50;22.70;;;;;;;;;;5279793;28;20017;-75
2023/04/17 07:46:14;;;;;;;31.35;24.67;;;;;;;;;;5280927;28;20021;-75
2023/04/17 07:48:46;;;;;;;27.90;21.88;;;;;;;;;;5280192;28;20511;-74
2023/04/17 07:51:17;;;;;;;29.00;21.42;;;;;;;;;;5280244;28;20023;-76
2023/04/17 07:53:48;;;;;;;28.95;23.90;;;;;;;;;;5280211;28;20454;-75
2023/04/17 07:56:19;;;;;;;27.95;22.90;;;;;;;;;;5280839;28;20066;-76
2023/04/17 07:58:50;;;;;;;31.42;24.33;;;;;;;;;;5280829;28;20281;-75
2023/04/17 08:01:21;;;;;;;33.80;25.38;;;;;;;;;;5284635;28;20021;-74
2023/04/17 08:03:54;;;;;;;33.60;26.98;;;;;;;;;;5283278;28;20069;-74
2023/04/17 08:06:25;;;;;;;30.85;25.10;;;;;;;;;;5284527;28;20016;-74
2023/04/17 08:08:58;;;;;;;34.83;26.52;;;;;;;;;;5279953;28;20086;-75
2023/04/17 08:11:29;;;;;;;29.85;23.58;;;;;;;;;;5280318;28;20410;-74
2023/04/17 08:14:01;;;;;;;27.67;22.77;;;;;;;;;;5282581;28;20028;-74
2023/04/17 08:16:32;;;;;;;29.60;24.65;;;;;;;;;;5282650;28;20020;-74
2023/04/17 08:19:03;;;;;;;27.17;23.63;;;;;;;;;;5282877;28;20048;-75
2023/04/17 08:21:34;;;;;;;27.80;22.60;;;;;;;;;;5279491;28;20295;-74
2023/04/17 08:24:06;;;;;;;24.52;20.77;;;;;;;;;;5267601;28;20287;-74
2023/04/17 08:26:37;;;;;;;27.52;21.45;;;;;;;;;;5280360;28;20374;-75
2023/04/17 08:29:08;;;;;;;26.67;21.10;;;;;;;;;;5280478;28;20067;-74
2023/04/17 08:31:40;;;;;;;24.88;20.55;;;;;;;;;;5280383;28;20032;-74
2023/04/17 08:34:11;;;;;;;25.30;20.70;;;;;;;;;;5280587;28;20107;-75
2023/04/17 08:36:42;;;;;;;24.80;19.58;;;;;;;;;;5280229;28;20024;-75
2023/04/17 08:39:15;;;;;;;24.70;20.55;;;;;;;;;;5282208;28;20090;-76
2023/04/17 08:41:54;;;;;;;24.02;19.35;;;;;;;;;;5282149;28;20411;-74
2023/04/17 08:44:25;;;;;;;26.45;20.88;;;;;;;;;;5282418;28;20041;-74
2023/04/17 08:46:57;;;;;;;22.10;18.90;;;;;;;;;;5281601;28;20356;-74
2023/04/17 08:49:28;;;;;;;23.27;19.42;;;;;;;;;;5282351;28;20815;-74
2023/04/17 08:52:03;;;;;;;26.30;20.77;;;;;;;;;;5282266;28;20029;-74
2023/04/17 08:54:35;;;;;;;26.15;20.15;;;;;;;;;;5280934;28;20025;-75
2023/04/17 08:57:06;;;;;;;24.88;20.67;;;;;;;;;;5282053;28;20012;-74
2023/04/17 08:59:37;;;;;;;22.23;18.70;;;;;;;;;;5281928;28;20043;-75
2023/04/17 09:02:09;;;;;;;24.10;19.70;;;;;;;;;;5282101;28;20044;-75
2023/04/17 09:04:41;;;;;;;28.33;21.27;;;;;;;;;;5278904;28;20259;-75
2023/04/17 09:07:12;;;;;;;25.42;20.48;;;;;;;;;;5281354;28;20025;-75
2023/04/17 09:09:47;;;;;;;25.20;20.50;;;;;;;;;;5280639;28;20035;-75
2023/04/17 09:12:20;;;;;;;24.83;20.70;;;;;;;;;;5281970;28;20016;-74
2023/04/17 09:14:51;;;;;;;25.55;19.83;;;;;;;;;;5280833;28;20430;-75
2023/04/17 09:17:32;;;;;;;26.45;20.15;;;;;;;;;;5282317;28;20025;-75
2023/04/17 09:20:08;;;;;;;23.13;18.67;;;;;;;;;;5282632;28;20020;-75
2023/04/17 09:22:39;;;;;;;24.60;20.50;;;;;;;;;;5281345;28;20030;-75
2023/04/17 09:25:15;;;;;;;24.73;19.45;;;;;;;;;;5281999;28;20123;-75
2023/04/17 09:27:47;;;;;;;25.67;20.60;;;;;;;;;;5280951;28;20475;-75
2023/04/17 09:30:18;;;;;;;24.20;19.92;;;;;;;;;;5281498;28;20025;-73
2023/04/17 09:33:01;;;;;;;24.77;20.63;;;;;;;;;;5281781;28;20009;-72
2023/04/17 09:35:32;;;;;;;20.92;18.25;;;;;;;;;;5281150;28;20259;-73
2023/04/17 09:38:03;;;;;;;25.30;20.65;;;;;;;;;;5282167;28;20025;-73
2023/04/17 09:40:39;;;;;;;22.35;19.77;;;;;;;;;;5281116;28;20270;-73
2023/04/17 09:43:11;;;;;;;21.55;18.45;;;;;;;;;;5280637;28;20478;-74
2023/04/17 09:45:43;;;;;;;25.58;20.73;;;;;;;;;;5281863;28;20024;-73
2023/04/17 09:48:15;;;;;;;23.88;19.98;;;;;;;;;;5282824;28;20468;-75
2023/04/17 09:50:46;;;;;;;23.05;19.58;;;;;;;;;;5281641;28;20052;-74
2023/04/17 09:53:18;;;;;;;23.42;17.88;;;;;;;;;;5282754;28;20032;-74
2023/04/17 09:55:52;;;;;;;21.98;18.75;;;;;;;;;;5281780;28;20048;-74
2023/04/17 09:58:23;;;;;;;19.67;17.55;;;;;;;;;;5281977;28;20086;-74
2023/04/17 10:00:54;;;;;;;21.55;19.17;;;;;;;;;;5281971;28;20021;-74
2023/04/17 10:03:26;;;;;;;21.48;19.17;;;;;;;;;;5281780;28;20045;-75
2023/04/17 10:05:57;;;;;;;22.92;19.00;;;;;;;;;;5281756;28;20024;-74
2023/04/17 10:08:28;;;;;;;21.40;18.13;;;;;;;;;;5282005;28;20028;-73
2023/04/17 10:11:04;;;;;;;21.92;18.58;;;;;;;;;;5281181;28;20464;-73
2023/04/17 10:13:37;;;;;;;21.63;18.08;;;;;;;;;;5281705;28;20021;-73
2023/04/17 10:16:08;;;;;;;22.98;17.75;;;;;;;;;;5281968;28;20107;-73
2023/04/17 10:18:40;;;;;;;22.92;17.48;;;;;;;;;;5280662;28;20547;-73
2023/04/17 10:21:22;;;;;;;19.77;17.67;;;;;;;;;;5281728;28;20024;-73
2023/04/17 10:23:53;;;;;;;21.05;18.35;;;;;;;;;;5281479;28;20044;-73
2023/04/17 10:26:24;;;;;;;21.75;18.35;;;;;;;;;;5281150;28;20021;-73
2023/04/17 10:28:58;;;;;;;24.25;18.50;;;;;;;;;;5281273;28;20029;-73
2023/04/17 10:31:49;;;;;;;19.38;17.27;;;;;;;;;;5280638;28;20319;-73
2023/04/17 10:34:32;;;;;;;22.98;17.55;;;;;;;;;;5282125;28;20356;-73
2023/04/17 10:37:04;;;;;;;21.58;17.88;;;;;;;;;;5281513;28;20397;-73
2023/04/17 10:40:19;;;;;;;22.60;18.13;;;;;;;;;;5280701;28;20142;-74
2023/04/17 10:43:25;;;;;;;21.90;18.35;;;;;;;;;;5175848;28;20023;-75
2023/04/17 10:46:03;;;;;;;18.55;16.55;;;;;;;;;;5115627;29;20499;-73
2023/04/17 10:48:36;;;;;;;19.48;17.38;;;;;;;;;;5260005;28;20048;-73
2023/04/17 10:51:20;;;;;;;18.80;16.27;;;;;;;;;;5281496;28;20025;-73
2023/04/17 10:53:57;;;;;;;21.95;18.50;;;;;;;;;;5280062;28;20388;-70
2023/04/17 10:56:36;;;;;;;18.15;16.30;;;;;;;;;;5277524;28;20021;-70
2023/04/17 10:59:11;;;;;;;19.77;15.50;;;;;;;;;;5281130;28;20099;-73
2023/04/17 11:01:49;;;;;;;16.15;14.30;;;;;;;;;;5280182;28;20265;-73
2023/04/17 11:04:21;;;;;;;19.15;16.67;;;;;;;;;;5281505;28;20024;-74
2023/04/17 11:06:54;;;;;;;22.13;17.52;;;;;;;;;;5279331;28;20021;-74
2023/04/17 11:09:26;;;;;;;19.77;16.73;;;;;;;;;;5280554;28;20048;-73
2023/04/17 11:12:00;;;;;;;22.55;17.75;;;;;;;;;;5279443;28;20050;-75
2023/04/17 11:14:31;;;;;;;23.42;17.08;;;;;;;;;;5280873;28;20021;-73
2023/04/17 11:17:02;;;;;;;18.60;16.27;;;;;;;;;;5280707;28;20020;-71
2023/04/17 11:19:34;;;;;;;20.48;17.77;;;;;;;;;;5281195;28;20371;-73
2023/04/17 11:22:05;;;;;;;19.23;17.15;;;;;;;;;;5280291;28;20459;-74
2023/04/17 11:24:36;;;;;;;22.10;16.75;;;;;;;;;;5280537;28;20051;-73
2023/04/17 11:27:08;;;;;;;21.00;16.55;;;;;;;;;;5280847;28;20090;-73
2023/04/17 11:29:39;;;;;;;18.35;15.65;;;;;;;;;;5279510;28;20536;-73
2023/04/17 11:32:11;;;;;;;19.43;15.80;;;;;;;;;;5281098;28;20757;-72
2023/04/17 11:34:42;;;;;;;17.60;15.57;;;;;;;;;;5283383;28;20278;-72
2023/04/17 11:37:13;;;;;;;20.27;17.13;;;;;;;;;;5284634;28;20020;-73
2023/04/17 11:39:45;;;;;;;23.60;16.83;;;;;;;;;;5284586;28;20729;-72
2023/04/17 11:42:24;;;;;;;25.95;16.85;;;;;;;;;;5283702;28;20017;-72
2023/04/17 11:45:02;;;;;;;15.98;14.35;;;;;;;;;;5284573;28;20023;-72
2023/04/17 11:47:34;;;;;;;18.77;14.43;;;;;;;;;;5284522;28;20052;-72
2023/04/17 11:50:05;;;;;;;17.40;14.60;;;;;;;;;;5283930;28;20052;-72
2023/04/17 11:52:37;;;;;;;16.00;14.25;;;;;;;;;;5284350;28;20016;-73
2023/04/17 11:55:08;;;;;;;18.75;15.20;;;;;;;;;;5284653;28;20074;-73
2023/04/17 11:57:42;;;;;;;16.88;14.43;;;;;;;;;;5283363;28;20062;-73
2023/04/17 12:00:14;;;;;;;18.10;16.20;;;;;;;;;;5284725;28;20073;-73
2023/04/17 12:02:45;;;;;;;18.55;15.55;;;;;;;;;;5284022;28;20025;-74
2023/04/17 12:05:17;;;;;;;16.90;14.48;;;;;;;;;;5283999;28;20016;-73
2023/04/17 12:08:01;;;;;;;19.85;16.02;;;;;;;;;;5283843;28;20027;-72
2023/04/17 12:10:50;;;;;;;19.75;14.93;;;;;;;;;;5283536;28;20028;-72
2023/04/17 12:13:21;;;;;;;18.17;14.13;;;;;;;;;;5284464;28;20466;-73
2023/04/17 12:15:52;;;;;;;16.20;14.50;;;;;;;;;;5283325;28;20024;-72
2023/04/17 12:18:24;;;;;;;21.38;15.13;;;;;;;;;;5283633;28;20050;-72
2023/04/17 12:20:55;;;;;;;20.77;16.88;;;;;;;;;;5283329;28;20036;-72
2023/04/17 12:23:26;;;;;;;18.02;14.38;;;;;;;;;;5283850;28;20082;-72
2023/04/17 12:25:57;;;;;;;17.02;14.35;;;;;;;;;;5282523;28;20036;-73
2023/04/17 12:28:28;;;;;;;17.23;15.15;;;;;;;;;;5284070;28;20525;-72
2023/04/17 12:30:59;;;;;;;19.45;16.60;;;;;;;;;;5282939;28;20798;-73
2023/04/17 12:33:31;;;;;;;19.98;15.00;;;;;;;;;;5283604;28;20036;-74
2023/04/17 12:36:03;;;;;;;19.20;15.05;;;;;;;;;;5283046;28;20031;-74
2023/04/17 12:38:34;;;;;;;16.65;14.90;;;;;;;;;;5280487;28;20450;-74
2023/04/17 12:41:06;;;;;;;19.48;15.18;;;;;;;;;;5281418;28;20112;-73
2023/04/17 12:43:37;;;;;;;16.87;14.20;;;;;;;;;;5280968;28;20020;-75
2023/04/17 12:46:08;;;;;;;14.17;12.23;;;;;;;;;;5279904;28;20776;-75
2023/04/17 12:48:39;;;;;;;21.83;15.47;;;;;;;;;;5281107;28;20736;-75
2023/04/17 12:51:11;;;;;;;15.20;13.15;;;;;;;;;;5281996;28;20290;-74
2023/04/17 12:53:42;;;;;;;17.02;12.93;;;;;;;;;;5282625;28;20025;-75
2023/04/17 12:56:13;;;;;;;17.48;14.18;;;;;;;;;;5283406;28;20024;-74
2023/04/17 12:58:44;;;;;;;17.23;13.70;;;;;;;;;;5280418;28;20271;-74
2023/04/17 13:01:15;;;;;;;19.03;14.70;;;;;;;;;;5281765;28;20518;-75
2023/04/17 13:03:46;;;;;;;17.27;14.30;;;;;;;;;;5282928;28;20621;-73
2023/04/17 13:06:20;;;;;;;17.33;14.17;;;;;;;;;;5282597;28;20255;-75
2023/04/17 13:08:51;;;;;;;18.13;13.85;;;;;;;;;;5282664;28;20377;-74
2023/04/17 13:11:22;;;;;;;17.42;14.40;;;;;;;;;;5283111;28;20104;-75
2023/04/17 13:13:53;;;;;;;16.58;13.65;;;;;;;;;;5281577;28;20032;-75
2023/04/17 13:16:25;;;;;;;14.03;10.90;;;;;;;;;;5283257;28;20367;-75
2023/04/17 13:18:56;;;;;;;14.77;12.32;;;;;;;;;;5282516;28;20779;-75
2023/04/17 13:21:27;;;;;;;17.67;13.23;;;;;;;;;;5282344;28;20017;-75
2023/04/17 13:23:59;;;;;;;16.77;13.55;;;;;;;;;;5282104;28;20127;-75
2023/04/17 13:26:30;;;;;;;20.50;15.70;;;;;;;;;;5282525;28;20283;-75
2023/04/17 13:29:01;;;;;;;16.17;14.32;;;;;;;;;;5281942;28;20477;-75
2023/04/17 13:31:32;;;;;;;16.80;14.00;;;;;;;;;;5282826;28;20538;-75
2023/04/17 13:34:05;;;;;;;20.45;14.98;;;;;;;;;;5282657;28;20267;-75
2023/04/17 13:36:36;;;;;;;13.77;12.38;;;;;;;;;;5281646;28;20009;-75
2023/04/17 13:39:08;;;;;;;17.65;12.77;;;;;;;;;;5282249;28;20023;-75
2023/04/17 13:41:39;;;;;;;13.15;11.48;;;;;;;;;;5281568;28;20327;-74
2023/04/17 13:44:11;;;;;;;17.00;12.88;;;;;;;;;;5282926;28;20029;-74
2023/04/17 13:46:42;;;;;;;13.63;12.30;;;;;;;;;;5282163;28;20012;-74
2023/04/17 13:49:14;;;;;;;14.13;12.65;;;;;;;;;;5281499;28;20064;-74
2023/04/17 13:51:45;;;;;;;16.60;12.75;;;;;;;;;;5281956;28;20025;-69
2023/04/17 13:54:17;;;;;;;15.93;11.77;;;;;;;;;;5282176;28;20413;-73
2023/04/17 13:56:48;;;;;;;13.85;11.40;;;;;;;;;;5280473;28;20017;-74
2023/04/17 13:59:19;;;;;;;13.47;10.50;;;;;;;;;;5282087;28;20017;-73
2023/04/17 14:01:51;;;;;;;13.55;11.35;;;;;;;;;;5280350;28;20263;-73
2023/04/17 14:04:22;;;;;;;12.88;10.60;;;;;;;;;;5277788;28;20267;-73
2023/04/17 14:06:53;;;;;;;14.13;10.43;;;;;;;;;;5280858;28;20039;-73
2023/04/17 14:09:24;;;;;;;14.45;9.70;;;;;;;;;;5281901;28;20298;-73
2023/04/17 14:11:56;;;;;;;12.57;10.05;;;;;;;;;;5280149;28;20071;-73
2023/04/17 14:14:28;;;;;;;13.25;10.02;;;;;;;;;;5281537;28;20028;-74
2023/04/17 14:16:59;;;;;;;13.77;9.57;;;;;;;;;;5279901;28;20013;-75
2023/04/17 14:19:30;;;;;;;14.52;9.93;;;;;;;;;;5281091;28;20396;-73
2023/04/17 14:22:02;;;;;;;12.13;9.07;;;;;;;;;;5281397;28;20012;-73
2023/04/17 14:24:33;;;;;;;12.25;9.75;;;;;;;;;;5280162;28;20294;-74
2023/04/17 14:27:04;;;;;;;12.13;9.20;;;;;;;;;;5280947;28;20024;-73
2023/04/17 14:29:35;;;;;;;11.95;9.80;;;;;;;;;;5281152;28;20294;-73
2023/04/17 14:32:06;;;;;;;14.20;10.20;;;;;;;;;;5280413;28;20270;-73
2023/04/17 14:34:37;;;;;;;12.07;10.33;;;;;;;;;;5280418;28;20802;-74
2023/04/17 14:37:09;;;;;;;13.73;11.82;;;;;;;;;;5266605;28;20326;-74
2023/04/17 14:39:40;;;;;;;15.13;11.17;;;;;;;;;;5259565;28;20395;-74
2023/04/17 14:42:11;;;;;;;15.90;12.17;;;;;;;;;;5260857;28;20346;-75
2023/04/17 14:44:42;;;;;;;14.00;11.07;;;;;;;;;;5259012;28;20283;-75